createdAt,value
2018-01-14T00:02:20.553Z,8.90
2018-01-14T00:04:47.332Z,11.93
2018-01-14T00:07:14.141Z,10.57
2018-01-14T00:09:40.934Z,10.23
2018-01-14T00:12:07.970Z,9.70
2018-01-14T00:14:34.744Z,11.97
2018-01-14T00:17:01.586Z,10.33
2018-01-14T00:19:28.591Z,9.83
2018-01-14T00:21:55.394Z,9.83
2018-01-14T00:24:22.373Z,9.20
2018-01-14T00:26:49.192Z,7.80
2018-01-14T00:29:15.972Z,7.97
2018-01-14T00:31:42.887Z,8.53
2018-01-14T00:34:09.846Z,8.40
2018-01-14T00:36:36.593Z,8.27
2018-01-14T00:39:03.429Z,8.67
2018-01-14T00:41:30.202Z,8.63
2018-01-14T00:43:57.002Z,8.07
2018-01-14T00:46:23.779Z,10.70
2018-01-14T00:48:50.548Z,9.60
2018-01-14T00:51:17.569Z,8.17
2018-01-14T00:53:44.341Z,9.60
2018-01-14T00:56:11.151Z,8.00
2018-01-14T00:58:38.086Z,6.80
2018-01-14T01:01:04.858Z,8.07
2018-01-14T01:03:31.718Z,7.30
2018-01-14T01:05:58.526Z,7.80
2018-01-14T01:08:25.458Z,8.63
2018-01-14T01:10:52.239Z,8.00
2018-01-14T01:13:19.016Z,7.57
2018-01-14T01:15:45.833Z,8.67
2018-01-14T01:18:12.641Z,7.90
2018-01-14T01:20:39.455Z,8.17
2018-01-14T01:23:06.299Z,9.13
2018-01-14T01:25:33.198Z,8.30
2018-01-14T01:27:59.978Z,8.10
2018-01-14T01:30:26.785Z,8.63
2018-01-14T01:32:53.594Z,9.10
2018-01-14T01:35:20.380Z,8.27
2018-01-14T01:37:47.379Z,9.10
2018-01-14T01:40:14.199Z,7.03
2018-01-14T01:42:41.000Z,7.63
2018-01-14T01:45:07.773Z,7.90
2018-01-14T01:47:34.574Z,7.00
2018-01-14T01:50:01.351Z,8.00
2018-01-14T01:52:28.139Z,8.10
2018-01-14T01:54:54.908Z,7.77
2018-01-14T01:57:21.818Z,8.47
2018-01-14T01:59:48.637Z,7.47
2018-01-14T02:02:15.623Z,7.53
2018-01-14T02:04:42.409Z,8.07
2018-01-14T02:07:09.231Z,7.37
2018-01-14T02:09:36.201Z,8.33
2018-01-14T02:12:03.184Z,8.50
2018-01-14T02:14:30.104Z,7.97
2018-01-14T02:16:57.062Z,8.10
2018-01-14T02:19:24.398Z,8.10
2018-01-14T02:21:51.261Z,7.53
2018-01-14T02:24:18.008Z,7.70
2018-01-14T02:26:44.901Z,7.70
2018-01-14T02:29:11.791Z,7.30
2018-01-14T02:31:38.743Z,8.27
2018-01-14T02:34:05.590Z,7.90
2018-01-14T02:36:32.460Z,7.77
2018-01-14T02:38:59.339Z,8.63
2018-01-14T02:41:26.989Z,8.20
2018-01-14T02:43:53.841Z,8.80
2018-01-14T02:46:20.802Z,7.50
2018-01-14T02:48:47.678Z,8.83
2018-01-14T02:51:14.538Z,8.50
2018-01-14T02:53:41.336Z,8.80
2018-01-14T02:56:08.201Z,8.97
2018-01-14T02:58:35.050Z,8.10
2018-01-14T03:01:01.869Z,9.40
2018-01-14T03:03:28.738Z,9.43
2018-01-14T03:05:55.481Z,8.53
2018-01-14T03:08:22.274Z,8.83
2018-01-14T03:10:49.126Z,9.47
2018-01-14T03:13:15.941Z,9.60
2018-01-14T03:15:42.781Z,10.03
2018-01-14T03:18:09.826Z,9.20
2018-01-14T03:20:36.636Z,9.57
2018-01-14T03:23:05.529Z,9.27
2018-01-14T03:25:32.359Z,8.97
2018-01-14T03:27:59.430Z,9.77
2018-01-14T03:30:26.328Z,9.87
2018-01-14T03:32:53.953Z,9.83
2018-01-14T03:35:20.849Z,9.07
2018-01-14T03:37:47.788Z,10.20
2018-01-14T03:40:18.442Z,9.10
2018-01-14T03:42:45.264Z,9.57
2018-01-14T03:45:12.066Z,9.73
2018-01-14T03:47:38.875Z,9.57
2018-01-14T03:50:05.686Z,10.07
2018-01-14T03:52:32.471Z,8.70
2018-01-14T03:54:59.280Z,8.27
2018-01-14T03:57:26.090Z,9.07
2018-01-14T03:59:52.867Z,9.93
2018-01-14T04:02:19.973Z,9.37
2018-01-14T04:04:46.779Z,9.03
2018-01-14T04:07:13.582Z,9.63
2018-01-14T04:09:40.385Z,9.70
2018-01-14T04:12:07.156Z,8.67
2018-01-14T04:14:33.981Z,9.27
2018-01-14T04:17:00.706Z,9.47
2018-01-14T04:19:27.559Z,9.30
2018-01-14T04:21:54.462Z,8.40
2018-01-14T04:24:21.281Z,9.47
2018-01-14T04:26:48.187Z,8.07
2018-01-14T04:29:15.047Z,9.10
2018-01-14T04:31:41.913Z,8.53
2018-01-14T04:34:08.838Z,8.67
2018-01-14T04:36:35.729Z,8.23
2018-01-14T04:39:02.634Z,8.93
2018-01-14T04:41:29.527Z,8.83
2018-01-14T04:43:56.467Z,8.67
2018-01-14T04:46:23.329Z,8.03
2018-01-14T04:48:50.277Z,8.77
2018-01-14T04:51:17.320Z,8.93
2018-01-14T04:53:44.241Z,8.27
2018-01-14T04:56:11.377Z,8.43
2018-01-14T04:58:38.314Z,8.37
2018-01-14T05:01:05.194Z,7.17
2018-01-14T05:03:32.047Z,7.40
2018-01-14T05:05:58.910Z,7.93
2018-01-14T05:08:25.805Z,8.13
2018-01-14T05:10:52.724Z,7.93
2018-01-14T05:13:19.837Z,7.57
2018-01-14T05:15:46.757Z,7.13
2018-01-14T05:18:13.740Z,8.30
2018-01-14T05:20:40.638Z,7.87
2018-01-14T05:23:07.567Z,8.27
2018-01-14T05:25:34.408Z,7.77
2018-01-14T05:28:01.208Z,7.13
2018-01-14T05:30:28.035Z,7.40
2018-01-14T05:32:54.925Z,7.17
2018-01-14T05:35:21.897Z,7.40
2018-01-14T05:37:48.953Z,7.60
2018-01-14T05:40:15.750Z,6.70
2018-01-14T05:42:42.554Z,7.70
2018-01-14T05:45:09.606Z,8.67
2018-01-14T05:47:36.466Z,8.13
2018-01-14T05:50:03.265Z,7.57
2018-01-14T05:52:30.088Z,7.87
2018-01-14T05:54:57.049Z,7.33
2018-01-14T05:57:23.886Z,7.80
2018-01-14T05:59:50.946Z,8.07
2018-01-14T06:02:17.890Z,7.50
2018-01-14T06:04:44.703Z,7.60
2018-01-14T06:07:11.548Z,7.97
2018-01-14T06:09:38.283Z,8.40
2018-01-14T06:12:05.218Z,7.23
2018-01-14T06:14:32.027Z,7.37
2018-01-14T06:16:58.830Z,6.57
2018-01-14T06:19:25.614Z,7.23
2018-01-14T06:21:52.381Z,6.90
2018-01-14T06:24:19.381Z,7.80
2018-01-14T06:26:46.209Z,6.80
2018-01-14T06:29:12.949Z,7.10
2018-01-14T06:31:40.017Z,8.23
2018-01-14T06:34:06.884Z,7.47
2018-01-14T06:36:33.654Z,7.00
2018-01-14T06:39:00.383Z,7.60
2018-01-14T06:41:27.107Z,7.27
2018-01-14T06:43:53.918Z,7.10
2018-01-14T06:46:20.717Z,7.20
2018-01-14T06:48:47.493Z,7.57
2018-01-14T06:51:14.402Z,7.50
2018-01-14T06:53:41.177Z,8.00
2018-01-14T06:56:07.916Z,7.50
2018-01-14T06:58:34.906Z,7.00
2018-01-14T07:01:01.682Z,7.47
2018-01-14T07:03:28.466Z,7.73
2018-01-14T07:05:55.433Z,8.07
2018-01-14T07:08:22.225Z,8.10
2018-01-14T07:10:48.999Z,7.90
2018-01-14T07:13:15.965Z,8.43
2018-01-14T07:15:42.752Z,7.00
2018-01-14T07:18:09.751Z,8.70
2018-01-14T07:20:36.719Z,8.07
2018-01-14T07:23:03.641Z,8.40
2018-01-14T07:25:30.601Z,7.13
2018-01-14T07:27:57.626Z,7.87
2018-01-14T07:30:24.595Z,8.10
2018-01-14T07:32:51.543Z,8.27
2018-01-14T07:35:18.562Z,7.83
2018-01-14T07:37:45.522Z,8.73
2018-01-14T07:40:12.475Z,8.53
2018-01-14T07:42:39.325Z,8.03
2018-01-14T07:45:06.361Z,7.87
2018-01-14T07:47:33.305Z,7.30
2018-01-14T07:50:00.470Z,7.83
2018-01-14T07:52:27.248Z,8.10
2018-01-14T07:54:54.026Z,8.03
2018-01-14T07:57:20.985Z,7.90
2018-01-14T07:59:47.943Z,7.13
2018-01-14T08:02:14.709Z,7.33
2018-01-14T08:04:41.734Z,6.83
2018-01-14T08:07:08.559Z,7.77
2018-01-14T08:09:35.510Z,7.67
2018-01-14T08:12:02.282Z,7.70
2018-01-14T08:14:29.313Z,8.40
2018-01-14T08:16:56.166Z,7.03
2018-01-14T08:19:22.935Z,8.33
2018-01-14T08:21:49.848Z,7.60
2018-01-14T08:24:16.689Z,7.90
2018-01-14T08:26:43.466Z,9.57
2018-01-14T08:29:10.309Z,7.43
2018-01-14T08:31:37.218Z,7.40
2018-01-14T08:34:04.236Z,16.70
2018-01-14T08:36:31.232Z,14.73
2018-01-14T08:38:58.072Z,13.23
2018-01-14T08:41:24.865Z,13.30
2018-01-14T08:43:51.798Z,15.37
2018-01-14T08:46:18.578Z,12.03
2018-01-14T08:48:45.749Z,10.77
2018-01-14T08:51:12.835Z,8.47
2018-01-14T08:53:39.851Z,9.60
2018-01-14T08:56:06.678Z,8.60
2018-01-14T08:58:33.521Z,8.23
2018-01-14T09:01:00.289Z,9.30
2018-01-14T09:03:27.057Z,8.43
2018-01-14T09:05:53.954Z,8.97
2018-01-14T09:08:20.901Z,8.23
2018-01-14T09:10:47.856Z,9.43
2018-01-14T09:13:14.883Z,7.63
2018-01-14T09:15:41.889Z,10.70
2018-01-14T09:18:08.665Z,9.97
2018-01-14T09:20:35.687Z,8.27
2018-01-14T09:23:03.457Z,9.30
2018-01-14T09:25:30.261Z,8.60
2018-01-14T09:27:57.177Z,16.97
2018-01-14T09:30:30.169Z,10.47
2018-01-14T09:32:57.774Z,12.30
2018-01-14T09:35:25.650Z,8.90
2018-01-14T09:37:52.557Z,11.37
2018-01-14T09:40:19.344Z,9.00
2018-01-14T09:42:46.140Z,10.10
2018-01-14T09:45:13.089Z,10.03
2018-01-14T09:47:40.134Z,11.13
2018-01-14T09:50:07.686Z,9.47
2018-01-14T09:52:34.506Z,10.40
2018-01-14T09:55:01.242Z,10.37
2018-01-14T09:57:28.072Z,9.53
2018-01-14T09:59:54.811Z,9.60
2018-01-14T10:02:21.617Z,8.67
2018-01-14T10:04:48.563Z,9.40
2018-01-14T10:07:15.385Z,8.30
2018-01-14T10:09:42.443Z,9.47
2018-01-14T10:12:09.241Z,9.63
2018-01-14T10:14:36.111Z,8.83
2018-01-14T10:17:03.704Z,8.80
2018-01-14T10:19:31.491Z,9.03
2018-01-14T10:21:58.401Z,8.30
2018-01-14T10:24:25.356Z,8.87
2018-01-14T10:26:52.121Z,9.67
2018-01-14T10:29:19.046Z,10.47
2018-01-14T10:31:45.986Z,12.33
2018-01-14T10:34:13.256Z,12.70
2018-01-14T10:36:40.831Z,13.52
2018-01-14T10:39:07.713Z,10.53
2018-01-14T10:41:34.747Z,10.27
2018-01-14T10:44:01.741Z,11.63
2018-01-14T10:46:28.518Z,10.10
2018-01-14T10:48:55.320Z,10.83
2018-01-14T10:51:22.121Z,9.03
2018-01-14T10:53:48.849Z,8.97
2018-01-14T10:56:15.630Z,10.80
2018-01-14T10:58:42.497Z,9.77
2018-01-14T11:01:09.545Z,10.30
2018-01-14T11:03:37.090Z,9.67
2018-01-14T11:06:04.053Z,9.93
2018-01-14T11:08:30.842Z,9.83
2018-01-14T11:10:57.737Z,9.67
2018-01-14T11:13:25.631Z,10.30
2018-01-14T11:15:52.412Z,9.40
2018-01-14T11:18:19.394Z,12.90
2018-01-14T11:23:53.561Z,10.30
2018-01-14T11:26:20.375Z,9.83
2018-01-14T11:28:52.058Z,10.03
2018-01-14T11:31:20.504Z,10.77
2018-01-14T11:33:50.862Z,10.37
2018-01-14T11:36:17.992Z,10.43
2018-01-14T11:38:53.380Z,9.77
2018-01-14T11:41:21.615Z,10.10
2018-01-14T11:43:48.568Z,10.60
2018-01-14T11:46:15.473Z,10.03
2018-01-14T11:51:40.167Z,11.57
2018-01-14T11:54:27.919Z,9.90
2018-01-14T11:56:56.022Z,10.27
2018-01-14T11:59:22.807Z,11.47
2018-01-14T12:02:56.185Z,10.20
2018-01-14T12:05:23.118Z,10.40
2018-01-14T12:07:50.021Z,11.10
2018-01-14T12:10:16.797Z,10.83
2018-01-14T12:12:43.721Z,11.60
2018-01-14T12:15:10.563Z,10.93
2018-01-14T12:17:37.381Z,10.03
2018-01-14T12:20:05.022Z,10.87
2018-01-14T12:22:31.942Z,11.63
2018-01-14T12:24:58.765Z,11.80
2018-01-14T12:27:25.590Z,10.03
2018-01-14T12:29:52.495Z,12.07
2018-01-14T12:32:19.480Z,12.77
2018-01-14T12:34:53.447Z,11.90
2018-01-14T12:37:20.412Z,12.23
2018-01-14T12:39:47.212Z,11.97
2018-01-14T12:42:14.227Z,11.37
2018-01-14T12:44:41.009Z,11.50
2018-01-14T12:47:07.799Z,11.80
2018-01-14T12:49:34.752Z,11.73
2018-01-14T12:52:01.578Z,11.37
2018-01-14T12:54:28.405Z,12.37
2018-01-14T12:56:55.368Z,10.23
2018-01-14T12:59:22.186Z,12.67
2018-01-14T13:01:49.829Z,15.40
2018-01-14T13:04:16.919Z,12.33
2018-01-14T13:06:43.878Z,10.20
2018-01-14T13:09:10.697Z,15.60
2018-01-14T13:11:37.516Z,15.20
2018-01-14T13:14:04.491Z,12.73
2018-01-14T13:19:17.568Z,82.03
2018-01-14T13:21:59.390Z,17.80
2018-01-14T13:24:26.229Z,12.63
2018-01-14T13:26:53.067Z,13.00
2018-01-14T13:29:20.081Z,12.80
2018-01-14T13:31:47.022Z,15.90
2018-01-14T13:34:13.876Z,12.67
2018-01-14T13:36:40.915Z,14.27
2018-01-14T13:39:07.713Z,10.70
2018-01-14T13:41:34.554Z,11.83
2018-01-14T13:44:01.531Z,11.23
2018-01-14T13:46:28.475Z,17.23
2018-01-14T13:48:55.255Z,11.57
2018-01-14T13:51:22.045Z,12.83
2018-01-14T13:53:48.915Z,12.07
2018-01-14T13:56:15.951Z,13.73
2018-01-14T13:58:43.105Z,11.03
2018-01-14T14:01:09.936Z,15.13
2018-01-14T14:03:36.753Z,12.57
2018-01-14T14:06:03.748Z,11.87
2018-01-14T14:08:30.563Z,13.87
2018-01-14T14:10:58.021Z,22.77
2018-01-14T14:13:24.985Z,14.40
2018-01-14T14:15:51.847Z,14.73
2018-01-14T14:18:18.722Z,10.37
2018-01-14T14:20:45.737Z,11.63
2018-01-14T14:23:12.562Z,11.93
2018-01-14T14:25:39.459Z,12.33
2018-01-14T14:28:06.457Z,11.43
2018-01-14T14:30:33.317Z,14.10
2018-01-14T14:33:00.371Z,12.57
2018-01-14T14:35:27.205Z,11.57
2018-01-14T14:37:54.190Z,11.83
2018-01-14T14:40:21.101Z,11.57
2018-01-14T14:42:48.262Z,10.97
2018-01-14T14:45:15.107Z,10.67
2018-01-14T14:47:41.953Z,11.27
2018-01-14T14:50:08.915Z,12.37
2018-01-14T14:52:36.019Z,11.70
2018-01-14T14:55:03.146Z,13.00
2018-01-14T14:57:29.986Z,13.37
2018-01-14T14:59:56.950Z,12.67
2018-01-14T15:02:23.964Z,11.73
2018-01-14T15:04:50.875Z,11.87
2018-01-14T15:07:17.893Z,12.87
2018-01-14T15:09:44.767Z,13.03
2018-01-14T15:12:11.874Z,13.10
2018-01-14T15:14:38.866Z,12.67
2018-01-14T15:17:05.937Z,12.03
2018-01-14T15:19:32.986Z,14.33
2018-01-14T15:21:59.821Z,17.83
2018-01-14T15:24:26.718Z,20.90
2018-01-14T15:26:53.593Z,15.83
2018-01-14T15:29:21.449Z,18.57
2018-01-14T15:31:48.504Z,19.23
2018-01-14T15:34:15.364Z,18.33
2018-01-14T15:36:42.502Z,17.10
2018-01-14T15:39:09.393Z,17.07
2018-01-14T15:41:36.317Z,17.07
2018-01-14T15:44:03.241Z,15.90
2018-01-14T15:46:30.101Z,19.33
2018-01-14T15:48:57.210Z,15.80
2018-01-14T15:51:24.097Z,15.50
2018-01-14T15:53:50.908Z,16.03
2018-01-14T15:56:17.875Z,17.07
2018-01-14T15:58:44.711Z,18.83
2018-01-14T16:01:11.797Z,17.80
2018-01-14T16:03:38.666Z,15.70
2018-01-14T16:06:05.697Z,16.93
2018-01-14T16:08:32.574Z,15.90
2018-01-14T16:10:59.579Z,15.87
2018-01-14T16:13:26.512Z,14.20
2018-01-14T16:15:53.429Z,15.03
2018-01-14T16:18:20.382Z,14.87
2018-01-14T16:20:47.519Z,15.63
2018-01-14T16:23:14.688Z,15.20
2018-01-14T16:25:42.051Z,15.77
2018-01-14T16:28:09.034Z,15.73
2018-01-14T16:30:36.320Z,15.37
2018-01-14T16:33:03.537Z,15.67
2018-01-14T16:35:30.621Z,14.53
2018-01-14T16:38:02.615Z,14.77
2018-01-14T16:40:29.445Z,14.60
2018-01-14T16:42:57.023Z,13.63
2018-01-14T16:45:23.799Z,13.93
2018-01-14T16:47:50.613Z,15.53
2018-01-14T16:50:24.077Z,15.83
2018-01-14T16:52:50.929Z,15.83
2018-01-14T16:55:17.930Z,13.10
2018-01-14T16:57:44.746Z,14.93
2018-01-14T17:00:12.716Z,16.50
2018-01-14T17:02:39.576Z,15.47
2018-01-14T17:05:06.523Z,15.07
2018-01-14T17:07:33.366Z,15.73
2018-01-14T17:10:00.408Z,14.30
2018-01-14T17:12:27.142Z,15.80
2018-01-14T17:14:53.954Z,15.83
2018-01-14T17:17:20.947Z,15.03
2018-01-14T17:19:47.757Z,14.33
2018-01-14T17:22:16.617Z,15.33
2018-01-14T17:25:15.536Z,15.37
2018-01-14T17:27:42.835Z,14.23
2018-01-14T17:30:09.696Z,16.10
2018-01-14T17:32:36.504Z,15.27
2018-01-14T17:35:03.392Z,16.60
2018-01-14T17:37:30.293Z,17.17
2018-01-14T17:39:59.572Z,16.67
2018-01-14T17:42:30.216Z,16.50
2018-01-14T17:45:06.819Z,15.40
2018-01-14T17:47:36.982Z,17.03
2018-01-14T17:50:04.527Z,17.40
2018-01-14T17:52:31.508Z,17.70
2018-01-14T17:54:58.339Z,18.03
2018-01-14T17:57:25.250Z,18.60
2018-01-14T17:59:52.392Z,17.07
2018-01-14T18:02:19.511Z,17.07
2018-01-14T18:04:46.941Z,17.10
2018-01-14T18:07:13.710Z,18.23
2018-01-14T18:09:40.747Z,16.47
2018-01-14T18:12:07.581Z,18.07
2018-01-14T18:14:34.359Z,16.80
2018-01-14T18:17:01.393Z,18.30
2018-01-14T18:19:28.348Z,17.77
2018-01-14T18:21:55.126Z,16.57
2018-01-14T18:24:21.964Z,16.60
2018-01-14T18:26:48.765Z,17.20
2018-01-14T18:29:16.750Z,16.57
2018-01-14T18:31:43.621Z,18.23
2018-01-14T18:34:10.461Z,18.70
2018-01-14T18:36:37.519Z,18.60
2018-01-14T18:39:04.535Z,18.67
2018-01-14T18:41:31.400Z,17.13
2018-01-14T18:43:58.616Z,16.60
2018-01-14T18:46:25.445Z,16.90
2018-01-14T18:48:52.237Z,20.03
2018-01-14T18:51:19.105Z,17.57
2018-01-14T18:53:45.978Z,18.40
2018-01-14T18:56:12.937Z,19.30
2018-01-14T18:58:39.742Z,18.07
2018-01-14T19:01:06.589Z,17.87
2018-01-14T19:03:33.536Z,20.17
2018-01-14T19:06:00.470Z,19.17
2018-01-14T19:08:27.357Z,17.57
2018-01-14T19:10:54.197Z,17.27
2018-01-14T19:13:21.136Z,20.07
2018-01-14T19:15:47.990Z,20.27
2018-01-14T19:18:14.845Z,21.77
2018-01-14T19:20:41.662Z,20.03
2018-01-14T19:23:08.570Z,20.10
2018-01-14T19:25:35.447Z,19.37
2018-01-14T19:28:02.401Z,19.43
2018-01-14T19:30:29.299Z,18.30
2018-01-14T19:32:56.171Z,16.93
2018-01-14T19:35:23.112Z,18.67
2018-01-14T19:37:50.055Z,22.37
2018-01-14T19:40:16.954Z,20.40
2018-01-14T19:42:43.858Z,19.97
2018-01-14T19:45:10.782Z,22.47
2018-01-14T19:47:37.900Z,19.13
2018-01-14T19:50:04.977Z,19.93
2018-01-14T19:52:32.297Z,19.30
2018-01-14T19:54:59.304Z,18.30
2018-01-14T19:57:26.846Z,18.77
2018-01-14T19:59:53.886Z,19.47
2018-01-14T20:02:20.916Z,18.43
2018-01-14T20:04:47.914Z,19.10
2018-01-14T20:07:14.773Z,18.43
2018-01-14T20:09:42.358Z,19.30
2018-01-14T20:12:09.451Z,18.67
2018-01-14T20:14:36.307Z,19.13
2018-01-14T20:17:03.278Z,18.37
2018-01-14T20:19:30.193Z,16.50
2018-01-14T20:21:57.249Z,17.20
2018-01-14T20:24:24.140Z,17.93
2018-01-14T20:26:51.355Z,17.33
2018-01-14T20:29:18.247Z,18.30
2018-01-14T20:31:45.143Z,19.37
2018-01-14T20:34:12.055Z,19.97
2018-01-14T20:36:38.975Z,18.27
2018-01-14T20:39:06.641Z,17.37
2018-01-14T20:41:33.585Z,19.73
2018-01-14T20:44:00.427Z,22.17
2018-01-14T20:46:27.324Z,21.17
2018-01-14T20:48:54.267Z,18.70
2018-01-14T20:51:21.140Z,18.90
2018-01-14T20:53:47.994Z,19.10
2018-01-14T20:56:15.113Z,19.87
2018-01-14T20:58:42.059Z,20.20
2018-01-14T21:01:09.046Z,18.10
2018-01-14T21:03:36.008Z,20.67
2018-01-14T21:06:02.854Z,20.60
2018-01-14T21:08:29.782Z,20.13
2018-01-14T21:10:56.691Z,19.40
2018-01-14T21:13:25.611Z,19.63
2018-01-14T21:16:02.048Z,20.13
2018-01-14T21:18:28.878Z,21.50
2018-01-14T21:20:55.822Z,21.80
2018-01-14T21:23:23.119Z,22.77
2018-01-14T21:25:50.068Z,20.53
2018-01-14T21:28:17.178Z,21.67
2018-01-14T21:30:44.258Z,18.93
2018-01-14T21:33:11.385Z,18.60
2018-01-14T21:35:38.162Z,18.07
2018-01-14T21:38:05.677Z,17.60
2018-01-14T21:40:33.663Z,17.57
2018-01-14T21:43:01.793Z,18.83
2018-01-14T21:45:28.701Z,17.67
2018-01-14T21:47:57.212Z,18.60
2018-01-14T21:50:26.166Z,17.50
2018-01-14T21:52:57.427Z,20.70
2018-01-14T21:55:26.631Z,18.80
2018-01-14T21:57:57.651Z,18.93
2018-01-14T22:00:27.997Z,17.90
2018-01-14T22:02:57.704Z,19.07
2018-01-14T22:05:30.104Z,18.63
2018-01-14T22:07:57.415Z,17.10
2018-01-14T22:10:24.404Z,17.57
2018-01-14T22:12:51.264Z,19.30
2018-01-14T22:15:18.780Z,18.23
2018-01-14T22:17:45.827Z,18.87
2018-01-14T22:20:12.848Z,18.67
2018-01-14T22:22:39.713Z,19.53
2018-01-14T22:25:06.601Z,18.73
2018-01-14T22:27:33.584Z,17.70
2018-01-14T22:30:00.516Z,18.17
2018-01-14T22:32:27.542Z,20.73
2018-01-14T22:34:54.493Z,20.30
2018-01-14T22:37:21.506Z,19.67
2018-01-14T22:39:48.294Z,19.77
2018-01-14T22:42:15.229Z,19.67
2018-01-14T22:44:42.006Z,20.33
2018-01-14T22:47:08.746Z,20.87
2018-01-14T22:49:35.582Z,22.17
2018-01-14T22:52:02.407Z,23.00
2018-01-14T22:54:29.149Z,24.23
2018-01-14T22:56:56.008Z,23.70
2018-01-14T22:59:22.927Z,23.50
2018-01-14T23:01:49.751Z,23.63
2018-01-14T23:04:16.556Z,23.23
2018-01-14T23:06:43.349Z,22.33
2018-01-14T23:09:10.530Z,20.93
2018-01-14T23:11:37.362Z,22.07
2018-01-14T23:14:04.641Z,22.67
2018-01-14T23:16:31.559Z,22.53
2018-01-14T23:18:58.374Z,24.27
2018-01-14T23:21:25.176Z,23.40
2018-01-14T23:23:51.994Z,21.50
2018-01-14T23:26:56.895Z,23.70
2018-01-14T23:29:23.714Z,24.20
2018-01-14T23:31:50.701Z,21.87
2018-01-14T23:34:17.509Z,26.27
2018-01-14T23:36:44.370Z,23.93
2018-01-14T23:39:11.240Z,25.20
2018-01-14T23:41:38.150Z,24.23
2018-01-14T23:44:05.955Z,25.77
2018-01-14T23:46:32.733Z,25.27
2018-01-14T23:48:59.616Z,23.30
2018-01-14T23:51:26.389Z,25.83
2018-01-14T23:53:54.727Z,25.70
2018-01-14T23:56:27.517Z,24.80
